Time;durP1;ratioP1;P1;durP2;ratioP2;P2;SDS_P1;SDS_P2;PMS_P1;PMS_P2;Temp;Humidity;BMP_temperature;BMP_pressure;BME280_temperature;BME280_humidity;BME280_pressure;Samples;Min_cycle;Max_cycle;Signal;HPM_P1;HPM_P2
2022/05/17 00:01:26;;;;;;;;;;;;;;;;;;5076664;28;28352;-85
2022/05/17 00:03:51;;;;;;;;;;;;;;;;;;5076286;28;28329;-85
2022/05/17 00:06:16;;;;;;;;;;;;;;;;;;5076069;28;28336;-85
2022/05/17 00:08:41;;;;;;;;;;;;;;;;;;5076333;28;28678;-84
2022/05/17 00:11:06;;;;;;;;;;;;;;;;;;5076516;28;28329;-85
2022/05/17 00:13:32;;;;;;;;;;;;;;;;;;5076634;28;28466;-85
2022/05/17 00:15:57;;;;;;;;;;;;;;;;;;5076585;28;28374;-84
2022/05/17 00:18:23;;;;;;;;;;;;;;;;;;5076247;28;28379;-84
2022/05/17 00:20:48;;;;;;;;;;;;;;;;;;5076177;28;28226;-84
2022/05/17 00:23:15;;;;;;;;;;;;;;;;;;5076156;28;28367;-85
2022/05/17 00:25:40;;;;;;;;;;;;;;;;;;5076271;28;28619;-85
2022/05/17 00:28:05;;;;;;;;;;;;;;;;;;5076252;28;29616;-85
2022/05/17 00:30:31;;;;;;;;;;;;;;;;;;5076275;28;28589;-85
2022/05/17 00:32:56;;;;;;;;;;;;;;;;;;5058155;28;28453;-85
2022/05/17 00:35:21;;;;;;;;;;;;;;;;;;5076205;28;28305;-85
2022/05/17 00:37:46;;;;;;;;;;;;;;;;;;5075422;28;29425;-85
2022/05/17 00:40:11;;;;;;;;;;;;;;;;;;5075867;28;28356;-84
2022/05/17 00:42:37;;;;;;;;;;;;;;;;;;5076230;28;28230;-84
2022/05/17 00:45:02;;;;;;;;;;;;;;;;;;5076017;28;28301;-84
2022/05/17 00:47:27;;;;;;;;;;;;;;;;;;5075825;28;29157;-84
2022/05/17 00:49:52;;;;;;;;;;;;;;;;;;5076074;28;28454;-84
2022/05/17 00:52:17;;;;;;;;;;;;;;;;;;5075846;28;28423;-84
2022/05/17 00:54:42;;;;;;;;;;;;;;;;;;5057822;28;28467;-84
2022/05/17 00:57:07;;;;;;;;;;;;;;;;;;5075757;28;29287;-84
2022/05/17 00:59:33;;;;;;;;;;;;;;;;;;5075343;28;28388;-84
2022/05/17 01:01:58;;;;;;;;;;;;;;;;;;5075048;28;28308;-84
2022/05/17 01:04:23;;;;;;;;;;;;;;;;;;5075309;28;28368;-84
2022/05/17 01:06:48;;;;;;;;;;;;;;;;;;5075648;28;29334;-84
2022/05/17 01:09:13;;;;;;;;;;;;;;;;;;5075554;28;28304;-84
2022/05/17 01:11:38;;;;;;;;;;;;;;;;;;5075484;28;28423;-84
2022/05/17 01:16:47;;;;;;;;;;;;;;;;;;5074795;28;28434;-84
2022/05/17 01:19:12;;;;;;;;;;;;;;;;;;5074445;28;28398;-84
2022/05/17 01:21:37;;;;;;;;;;;;;;;;;;5075733;28;28233;-84
2022/05/17 01:24:02;;;;;;;;;;;;;;;;;;5075314;28;28237;-85
2022/05/17 01:26:27;;;;;;;;;;;;;;;;;;5075342;28;28551;-85
2022/05/17 01:28:53;;;;;;;;;;;;;;;;;;5075365;28;28328;-84
2022/05/17 01:31:18;;;;;;;;;;;;;;;;;;5075104;28;28363;-84
2022/05/17 01:33:43;;;;;;;;;;;;;;;;;;5057247;28;28617;-84
2022/05/17 01:36:08;;;;;;;;;;;;;;;;;;5075172;28;28493;-84
2022/05/17 01:38:33;;;;;;;;;;;;;;;;;;5075343;28;28610;-84
2022/05/17 01:40:58;;;;;;;;;;;;;;;;;;5075081;28;28370;-84
2022/05/17 01:43:23;;;;;;;;;;;;;;;;;;5075422;28;28424;-85
2022/05/17 01:45:48;;;;;;;;;;;;;;;;;;5074991;28;28304;-84
2022/05/17 01:48:14;;;;;;;;;;;;;;;;;;5075012;28;28411;-84
2022/05/17 01:50:39;;;;;;;;;;;;;;;;;;5075069;28;28379;-84
2022/05/17 01:53:04;;;;;;;;;;;;;;;;;;5074966;28;28411;-84
2022/05/17 01:55:29;;;;;;;;;;;;;;;;;;5075070;28;28653;-84
2022/05/17 01:57:54;;;;;;;;;;;;;;;;;;5074777;28;28463;-84
2022/05/17 02:00:19;;;;;;;;;;;;;;;;;;5074614;28;28458;-84
2022/05/17 02:02:44;;;;;;;;;;;;;;;;;;5075091;28;28375;-84
2022/05/17 02:05:09;;;;;;;;;;;;;;;;;;5074665;28;28513;-84
2022/05/17 02:07:34;;;;;;;;;;;;;;;;;;5074764;28;28438;-84
2022/05/17 02:09:59;;;;;;;;;;;;;;;;;;5074968;28;28318;-84
2022/05/17 02:12:25;;;;;;;;;;;;;;;;;;5074909;28;28505;-84
2022/05/17 02:14:50;;;;;;;;;;;;;;;;;;5074692;28;28368;-85
2022/05/17 02:17:15;;;;;;;;;;;;;;;;;;5074607;28;28510;-84
2022/05/17 02:19:40;;;;;;;;;;;;;;;;;;5074823;28;28390;-84
2022/05/17 02:22:05;;;;;;;;;;;;;;;;;;5074676;28;28344;-84
2022/05/17 02:24:30;;;;;;;;;;;;;;;;;;5074417;28;28431;-84
2022/05/17 02:26:55;;;;;;;;;;;;;;;;;;5074522;28;28387;-84
2022/05/17 02:29:21;;;;;;;;;;;;;;;;;;5076036;28;28321;-84
2022/05/17 02:31:46;;;;;;;;;;;;;;;;;;5078166;28;28449;-84
2022/05/17 02:34:11;;;;;;;;;;;;;;;;;;5078134;28;29701;-84
2022/05/17 02:36:36;;;;;;;;;;;;;;;;;;5078004;28;28443;-84
2022/05/17 02:39:01;;;;;;;;;;;;;;;;;;5077916;28;28427;-85
2022/05/17 02:41:26;;;;;;;;;;;;;;;;;;5078078;28;28403;-85
2022/05/17 02:43:53;;;;;;;;;;;;;;;;;;5077895;28;29205;-85
2022/05/17 02:46:18;;;;;;;;;;;;;;;;;;5077940;28;28458;-85
2022/05/17 02:48:43;;;;;;;;;;;;;;;;;;5078088;28;28395;-85
2022/05/17 02:51:09;;;;;;;;;;;;;;;;;;5077700;28;28553;-85
2022/05/17 02:53:34;;;;;;;;;;;;;;;;;;5077684;28;28356;-84
2022/05/17 02:55:59;;;;;;;;;;;;;;;;;;5077664;28;28352;-85
2022/05/17 02:58:24;;;;;;;;;;;;;;;;;;5077626;28;28359;-85
2022/05/17 03:00:49;;;;;;;;;;;;;;;;;;5077621;28;28473;-85
2022/05/17 03:03:14;;;;;;;;;;;;;;;;;;5077362;28;28343;-85
2022/05/17 03:05:40;;;;;;;;;;;;;;;;;;5077321;28;28327;-85
2022/05/17 03:08:05;;;;;;;;;;;;;;;;;;5077640;28;28461;-85
2022/05/17 03:10:30;;;;;;;;;;;;;;;;;;5077612;28;28402;-84
2022/05/17 03:12:55;;;;;;;;;;;;;;;;;;5077432;28;28427;-85
2022/05/17 03:15:20;;;;;;;;;;;;;;;;;;5077266;28;27761;-84
2022/05/17 03:17:45;;;;;;;;;;;;;;;;;;5077470;28;28491;-84
2022/05/17 03:20:11;;;;;;;;;;;;;;;;;;5077554;28;28446;-84
2022/05/17 03:22:36;;;;;;;;;;;;;;;;;;5077227;28;28552;-84
2022/05/17 03:25:01;;;;;;;;;;;;;;;;;;5077257;28;28291;-84
2022/05/17 03:27:26;;;;;;;;;;;;;;;;;;5077262;28;28288;-85
2022/05/17 03:29:51;;;;;;;;;;;;;;;;;;5077531;28;28360;-84
2022/05/17 03:32:16;;;;;;;;;;;;;;;;;;5076980;28;29552;-84
2022/05/17 03:34:41;;;;;;;;;;;;;;;;;;5077039;28;28335;-84
2022/05/17 03:37:07;;;;;;;;;;;;;;;;;;5077002;28;28455;-84
2022/05/17 03:39:32;;;;;;;;;;;;;;;;;;5077412;28;28460;-84
2022/05/17 03:41:57;;;;;;;;;;;;;;;;;;5076098;28;28517;-87
2022/05/17 03:44:22;;;;;;;;;;;;;;;;;;5076966;28;28296;-84
2022/05/17 03:46:47;;;;;;;;;;;;;;;;;;5076864;28;28246;-84
2022/05/17 03:49:12;;;;;;;;;;;;;;;;;;5077054;28;28415;-84
2022/05/17 03:51:37;;;;;;;;;;;;;;;;;;5076699;28;28382;-84
2022/05/17 03:54:02;;;;;;;;;;;;;;;;;;5076855;28;28246;-84
2022/05/17 03:56:27;;;;;;;;;;;;;;;;;;5076760;28;28328;-84
2022/05/17 03:58:52;;;;;;;;;;;;;;;;;;5076777;28;28369;-84
2022/05/17 04:01:18;;;;;;;;;;;;;;;;;;5076530;28;28451;-84
2022/05/17 04:03:43;;;;;;;;;;;;;;;;;;5076505;28;28303;-84
2022/05/17 04:06:08;;;;;;;;;;;;;;;;;;5076667;28;28359;-84
2022/05/17 04:08:33;;;;;;;;;;;;;;;;;;5076558;28;28339;-84
2022/05/17 04:10:58;;;;;;;;;;;;;;;;;;5076634;28;28433;-84
2022/05/17 04:13:26;;;;;;;;;;;;;;;;;;5076602;28;28383;-84
2022/05/17 04:15:51;;;;;;;;;;;;;;;;;;5076429;28;28475;-84
2022/05/17 04:18:16;;;;;;;;;;;;;;;;;;5076589;28;28424;-84
2022/05/17 04:20:41;;;;;;;;;;;;;;;;;;5076045;28;28385;-84
2022/05/17 04:23:06;;;;;;;;;;;;;;;;;;5076204;28;28490;-84
2022/05/17 04:25:31;;;;;;;;;;;;;;;;;;5076402;28;28407;-84
2022/05/17 04:27:56;;;;;;;;;;;;;;;;;;5076201;28;28454;-84
2022/05/17 04:30:21;;;;;;;;;;;;;;;;;;5076424;28;28390;-84
2022/05/17 04:32:47;;;;;;;;;;;;;;;;;;5075999;28;28396;-85
2022/05/17 04:35:12;;;;;;;;;;;;;;;;;;5076229;28;28364;-84
2022/05/17 04:37:37;;;;;;;;;;;;;;;;;;5076046;28;28497;-84
2022/05/17 04:40:02;;;;;;;;;;;;;;;;;;5076131;28;28343;-85
2022/05/17 04:42:27;;;;;;;;;;;;;;;;;;5076079;28;28395;-84
2022/05/17 04:44:52;;;;;;;;;;;;;;;;;;5076060;28;28459;-85
2022/05/17 04:47:17;;;;;;;;;;;;;;;;;;5076284;28;28266;-84
2022/05/17 04:49:42;;;;;;;;;;;;;;;;;;5075843;28;28488;-84
2022/05/17 04:52:08;;;;;;;;;;;;;;;;;;5075106;28;28252;-82
2022/05/17 04:54:33;;;;;;;;;;;;;;;;;;5074863;28;28388;-82
2022/05/17 04:56:58;;;;;;;;;;;;;;;;;;5075837;28;28367;-85
2022/05/17 04:59:23;;;;;;;;;;;;;;;;;;5075780;28;28322;-83
2022/05/17 05:01:48;;;;;;;;;;;;;;;;;;5075490;28;28254;-82
2022/05/17 05:04:13;;;;;;;;;;;;;;;;;;5075687;28;28301;-82
2022/05/17 05:06:38;;;;;;;;;;;;;;;;;;5075814;28;28526;-82
2022/05/17 05:09:03;;;;;;;;;;;;;;;;;;5075539;28;29200;-83
2022/05/17 05:11:28;;;;;;;;;;;;;;;;;;5075746;28;28420;-84
2022/05/17 05:13:54;;;;;;;;;;;;;;;;;;5075669;28;28319;-86
2022/05/17 05:16:19;;;;;;;;;;;;;;;;;;5076058;28;28245;-85
2022/05/17 05:18:44;;;;;;;;;;;;;;;;;;5075216;28;29314;-82
2022/05/17 05:21:09;;;;;;;;;;;;;;;;;;5075223;28;28393;-81
2022/05/17 05:23:34;;;;;;;;;;;;;;;;;;5075641;28;28412;-80
2022/05/17 05:25:59;;;;;;;;;;;;;;;;;;5075471;28;28430;-80
2022/05/17 05:28:24;;;;;;;;;;;;;;;;;;5075464;28;28605;-82
2022/05/17 05:30:50;;;;;;;;;;;;;;;;;;5075221;28;28434;-83
2022/05/17 05:33:15;;;;;;;;;;;;;;;;;;5075287;28;28360;-83
2022/05/17 05:35:40;;;;;;;;;;;;;;;;;;5075529;28;28845;-83
2022/05/17 05:38:05;;;;;;;;;;;;;;;;;;5074798;28;28322;-83
2022/05/17 05:40:30;;;;;;;;;;;;;;;;;;5075335;28;28292;-83
2022/05/17 05:42:56;;;;;;;;;;;;;;;;;;5075253;28;28281;-83
2022/05/17 05:45:21;;;;;;;;;;;;;;;;;;5075472;28;28414;-83
2022/05/17 05:47:46;;;;;;;;;;;;;;;;;;5075291;28;29653;-82
2022/05/17 05:50:11;;;;;;;;;;;;;;;;;;5075039;28;28404;-83
2022/05/17 05:52:37;;;;;;;;;;;;;;;;;;5075235;28;28328;-83
2022/05/17 05:55:02;;;;;;;;;;;;;;;;;;5056828;28;28577;-83
2022/05/17 05:57:27;;;;;;;;;;;;;;;;;;5075084;28;28459;-83
2022/05/17 05:59:53;;;;;;;;;;;;;;;;;;5075012;28;28312;-83
2022/05/17 06:02:18;;;;;;;;;;;;;;;;;;5074864;28;28266;-83
2022/05/17 06:04:43;;;;;;;;;;;;;;;;;;5077029;28;28242;-83
2022/05/17 06:07:08;;;;;;;;;;;;;;;;;;5078130;28;29123;-83
2022/05/17 06:09:33;;;;;;;;;;;;;;;;;;5078526;28;28545;-83
2022/05/17 06:11:59;;;;;;;;;;;;;;;;;;5078671;28;28363;-83
2022/05/17 06:14:24;;;;;;;;;;;;;;;;;;5078497;28;28552;-83
2022/05/17 06:16:49;;;;;;;;;;;;;;;;;;5078416;28;29195;-83
2022/05/17 06:19:14;;;;;;;;;;;;;;;;;;5077921;28;28330;-83
2022/05/17 06:21:40;;;;;;;;;;;;;;;;;;5078189;28;28463;-83
2022/05/17 06:24:05;;;;;;;;;;;;;;;;;;5078278;28;28491;-86
2022/05/17 06:26:32;;;;;;;;;;;;;;;;;;5078030;28;29389;-89
2022/05/17 06:28:57;;;;;;;;;;;;;;;;;;5078255;28;28425;-88
2022/05/17 06:31:23;;;;;;;;;;;;;;;;;;5078181;28;28970;-88
2022/05/17 06:33:48;;;;;;;;;;;;;;;;;;5078327;28;28305;-86
2022/05/17 06:36:13;;;;;;;;;;;;;;;;;;5077941;28;28324;-87
2022/05/17 06:38:38;;;;;;;;;;;;;;;;;;5077739;28;28360;-87
2022/05/17 06:41:04;;;;;;;;;;;;;;;;;;5078839;28;28409;-91
2022/05/17 06:43:29;;;;;;;;;;;;;;;;;;5077729;28;28336;-92
2022/05/17 06:45:54;;;;;;;;;;;;;;;;;;5059687;28;30302;-91
2022/05/17 06:48:20;;;;;;;;;;;;;;;;;;5077603;28;28242;-91
2022/05/17 06:50:45;;;;;;;;;;;;;;;;;;5077890;28;28295;-92
2022/05/17 06:53:10;;;;;;;;;;;;;;;;;;5078030;28;27744;-90
2022/05/17 06:55:37;;;;;;;;;;;;;;;;;;5077464;28;28490;-92
2022/05/17 06:58:03;;;;;;;;;;;;;;;;;;5077404;28;28356;-90
2022/05/17 07:00:28;;;;;;;;;;;;;;;;;;5077304;28;28244;-91
2022/05/17 07:02:53;;;;;;;;;;;;;;;;;;5077742;28;28412;-92
2022/05/17 07:05:18;;;;;;;;;;;;;;;;;;5077818;28;28444;-91
2022/05/17 07:07:43;;;;;;;;;;;;;;;;;;5077586;28;28335;-91
2022/05/17 07:13:13;;;;;;;;;;;;;;;;;;5077785;28;28579;-91
2022/05/17 07:15:38;;;;;;;;;;;;;;;;;;5076029;28;28467;-92
2022/05/17 07:18:04;;;;;;;;;;;;;;;;;;5077103;28;28466;-94
2022/05/17 07:20:29;;;;;;;;;;;;;;;;;;5077536;28;28419;-92
2022/05/17 07:22:54;;;;;;;;;;;;;;;;;;5077260;28;28495;-93
2022/05/17 07:25:19;;;;;;;;;;;;;;;;;;5058929;28;29671;-92
2022/05/17 07:27:45;;;;;;;;;;;;;;;;;;5077423;28;28463;-92
2022/05/17 07:30:10;;;;;;;;;;;;;;;;;;5077260;28;28447;-92
2022/05/17 07:32:35;;;;;;;;;;;;;;;;;;5059182;28;28483;-94
2022/05/17 07:35:00;;;;;;;;;;;;;;;;;;5058780;28;29889;-91
2022/05/17 07:37:25;;;;;;;;;;;;;;;;;;5058690;28;29829;-92
2022/05/17 07:39:50;;;;;;;;;;;;;;;;;;5058814;28;28521;-92
2022/05/17 07:42:15;;;;;;;;;;;;;;;;;;5058913;28;28735;-92
2022/05/17 07:44:41;;;;;;;;;;;;;;;;;;5058577;28;29528;-92
2022/05/17 07:47:06;;;;;;;;;;;;;;;;;;5076986;28;28249;-92
2022/05/17 07:49:31;;;;;;;;;;;;;;;;;;5076896;28;28540;-92
2022/05/17 07:51:56;;;;;;;;;;;;;;;;;;5058757;28;28510;-93
2022/05/17 07:54:21;;;;;;;;;;;;;;;;;;5076806;28;29270;-92
2022/05/17 07:56:47;;;;;;;;;;;;;;;;;;5058351;28;28526;-91
2022/05/17 07:59:12;;;;;;;;;;;;;;;;;;5058251;28;28575;-93
2022/05/17 08:01:37;;;;;;;;;;;;;;;;;;5058601;28;28644;-92
2022/05/17 08:04:02;;;;;;;;;;;;;;;;;;5058347;28;30091;-91
2022/05/17 08:06:27;;;;;;;;;;;;;;;;;;5076448;28;28423;-91
2022/05/17 08:08:52;;;;;;;;;;;;;;;;;;5058373;28;28475;-93
2022/05/17 08:11:18;;;;;;;;;;;;;;;;;;5076740;28;28446;-92
2022/05/17 08:13:43;;;;;;;;;;;;;;;;;;5076507;28;28438;-91
2022/05/17 08:16:08;;;;;;;;;;;;;;;;;;5076398;28;28467;-92
2022/05/17 08:18:34;;;;;;;;;;;;;;;;;;5058863;28;28418;-91
2022/05/17 08:20:59;;;;;;;;;;;;;;;;;;5076721;28;28348;-91
2022/05/17 08:23:24;;;;;;;;;;;;;;;;;;5075956;28;29270;-92
2022/05/17 08:28:33;;;;;;;;;;;;;;;;;;5075894;28;28403;-91
2022/05/17 08:30:58;;;;;;;;;;;;;;;;;;5076331;28;28244;-90
2022/05/17 08:33:26;;;;;;;;;;;;;;;;;;5076437;28;29342;-92
2022/05/17 08:35:51;;;;;;;;;;;;;;;;;;5057888;28;28077;-92
2022/05/17 08:38:16;;;;;;;;;;;;;;;;;;5075875;28;28280;-93
2022/05/17 08:40:41;;;;;;;;;;;;;;;;;;5058160;28;27951;-91
2022/05/17 08:43:06;;;;;;;;;;;;;;;;;;5057554;28;30054;-91
2022/05/17 08:45:32;;;;;;;;;;;;;;;;;;5075989;28;28396;-91
2022/05/17 08:47:57;;;;;;;;;;;;;;;;;;5057637;28;28367;-92
2022/05/17 08:50:22;;;;;;;;;;;;;;;;;;5075962;28;28395;-92
2022/05/17 08:52:47;;;;;;;;;;;;;;;;;;5057606;28;29916;-91
2022/05/17 08:55:12;;;;;;;;;;;;;;;;;;5075864;28;28381;-92
2022/05/17 08:57:37;;;;;;;;;;;;;;;;;;5076045;28;28487;-89
2022/05/17 09:00:03;;;;;;;;;;;;;;;;;;5059436;28;28294;-92
2022/05/17 09:02:28;;;;;;;;;;;;;;;;;;5075439;28;28416;-92
2022/05/17 09:04:53;;;;;;;;;;;;;;;;;;5075590;28;28234;-91
2022/05/17 09:07:18;;;;;;;;;;;;;;;;;;5057264;28;28240;-93
2022/05/17 09:09:43;;;;;;;;;;;;;;;;;;5057721;28;28331;-92
2022/05/17 09:12:08;;;;;;;;;;;;;;;;;;5075486;28;33777;-91
2022/05/17 09:14:33;;;;;;;;;;;;;;;;;;5057123;28;28472;-92
2022/05/17 09:16:58;;;;;;;;;;;;;;;;;;5075702;28;28413;-92
2022/05/17 09:19:24;;;;;;;;;;;;;;;;;;5075554;28;28572;-91
2022/05/17 09:21:49;;;;;;;;;;;;;;;;;;5075340;28;28472;-92
2022/05/17 09:24:14;;;;;;;;;;;;;;;;;;5056947;28;31548;-92
2022/05/17 09:26:39;;;;;;;;;;;;;;;;;;5075348;28;28411;-92
2022/05/17 09:29:05;;;;;;;;;;;;;;;;;;5075501;28;28574;-93
2022/05/17 09:31:30;;;;;;;;;;;;;;;;;;5074994;28;28419;-92
2022/05/17 09:33:55;;;;;;;;;;;;;;;;;;5075285;28;28450;-92
2022/05/17 09:36:20;;;;;;;;;;;;;;;;;;5075255;28;28446;-92
2022/05/17 09:38:45;;;;;;;;;;;;;;;;;;5074289;28;28510;-91
2022/05/17 09:41:10;;;;;;;;;;;;;;;;;;5076393;28;28327;-92
2022/05/17 09:43:36;;;;;;;;;;;;;;;;;;5075359;28;28518;-92
2022/05/17 09:46:01;;;;;;;;;;;;;;;;;;5075420;28;28469;-92
2022/05/17 09:48:26;;;;;;;;;;;;;;;;;;5056772;28;28494;-93
2022/05/17 09:53:39;;;;;;;;;;;;;;;;;;5075376;28;28524;-92
2022/05/17 09:56:04;;;;;;;;;;;;;;;;;;5093468;27;28383;-90
2022/05/17 09:58:29;;;;;;;;;;;;;;;;;;5097703;28;28486;-96
2022/05/17 10:00:54;;;;;;;;;;;;;;;;;;5064263;28;30761;-90
2022/05/17 10:03:19;;;;;;;;;;;;;;;;;;5074540;28;28596;-92
2022/05/17 10:05:45;;;;;;;;;;;;;;;;;;5101598;28;28225;-93
2022/05/17 10:08:13;;;;;;;;;;;;;;;;;;5079067;28;28473;-96
2022/05/17 10:10:38;;;;;;;;;;;;;;;;;;5071076;28;29047;-95
2022/05/17 10:13:03;;;;;;;;;;;;;;;;;;5055747;28;28584;-94
2022/05/17 10:15:32;;;;;;;;;;;;;;;;;;5055202;28;27877;-95
2022/05/17 10:18:12;;;;;;;;;;;;;;;;;;5056913;28;28479;-95
2022/05/17 10:20:40;;;;;;;;;;;;;;;;;;5056862;28;30971;-92
2022/05/17 10:23:05;;;;;;;;;;;;;;;;;;5072935;28;28503;-91
2022/05/17 10:25:31;;;;;;;;;;;;;;;;;;5057804;28;28605;-91
2022/05/17 10:27:57;;;;;;;;;;;;;;;;;;5054090;28;28498;-90
2022/05/17 10:30:22;;;;;;;;;;;;;;;;;;5053818;28;28570;-91
2022/05/17 10:32:48;;;;;;;;;;;;;;;;;;5058419;28;28516;-92
2022/05/17 10:35:15;;;;;;;;;;;;;;;;;;5053824;28;28430;-93
2022/05/17 10:37:40;;;;;;;;;;;;;;;;;;5054039;28;28472;-93
2022/05/17 10:40:06;;;;;;;;;;;;;;;;;;5053944;28;28411;-91
2022/05/17 10:42:31;;;;;;;;;;;;;;;;;;5062663;28;28009;-93
2022/05/17 10:44:56;;;;;;;;;;;;;;;;;;5060908;28;28458;-93
2022/05/17 10:47:21;;;;;;;;;;;;;;;;;;5054080;28;28372;-92
2022/05/17 10:49:46;;;;;;;;;;;;;;;;;;5054062;28;28540;-92
2022/05/17 10:52:13;;;;;;;;;;;;;;;;;;5062451;28;28336;-93
2022/05/17 10:54:38;;;;;;;;;;;;;;;;;;5077271;28;28257;-93
2022/05/17 10:57:04;;;;;;;;;;;;;;;;;;5058786;28;28440;-93
2022/05/17 10:59:29;;;;;;;;;;;;;;;;;;5058847;28;29815;-92
2022/05/17 11:01:54;;;;;;;;;;;;;;;;;;5074661;28;28625;-93
2022/05/17 11:04:19;;;;;;;;;;;;;;;;;;5057015;28;28399;-94
2022/05/17 11:06:44;;;;;;;;;;;;;;;;;;5055937;28;28372;-94
2022/05/17 11:09:09;;;;;;;;;;;;;;;;;;5056851;28;29168;-92
2022/05/17 11:11:35;;;;;;;;;;;;;;;;;;5057280;28;28451;-94
2022/05/17 11:14:00;;;;;;;;;;;;;;;;;;5058296;28;28458;-92
2022/05/17 11:16:25;;;;;;;;;;;;;;;;;;5097458;28;28415;-94
2022/05/17 11:18:50;;;;;;;;;;;;;;;;;;5097216;27;28435;-93
2022/05/17 11:21:15;;;;;;;;;;;;;;;;;;5078997;28;28497;-92
2022/05/17 11:23:40;;;;;;;;;;;;;;;;;;5097294;27;28364;-93
2022/05/17 11:26:05;;;;;;;;;;;;;;;;;;5079007;28;28482;-93
2022/05/17 11:28:33;;;;;;;;;;;;;;;;;;5076777;28;28719;-93
2022/05/17 11:31:00;;;;;;;;;;;;;;;;;;5076705;28;28340;-93
2022/05/17 11:33:26;;;;;;;;;;;;;;;;;;5056687;28;28470;-93
2022/05/17 11:35:54;;;;;;;;;;;;;;;;;;5061278;28;28345;-95
2022/05/17 11:38:23;;;;;;;;;;;;;;;;;;5066240;28;28693;-93
2022/05/17 11:40:51;;;;;;;;;;;;;;;;;;5085731;28;28380;-94
2022/05/17 11:46:01;;;;;;;;;;;;;;;;;;5056545;28;28513;-93
2022/05/17 11:48:26;;;;;;;;;;;;;;;;;;5076991;28;29123;-91
2022/05/17 11:50:51;;;;;;;;;;;;;;;;;;5092601;28;28403;-93
2022/05/17 11:53:16;;;;;;;;;;;;;;;;;;5095970;28;28421;-92
2022/05/17 11:55:41;;;;;;;;;;;;;;;;;;5076469;28;28466;-90
2022/05/17 11:58:08;;;;;;;;;;;;;;;;;;5058376;28;28798;-87
2022/05/17 12:00:34;;;;;;;;;;;;;;;;;;5093753;27;28599;-85
2022/05/17 12:02:59;;;;;;;;;;;;;;;;;;5085876;28;28421;-84
2022/05/17 12:05:24;;;;;;;;;;;;;;;;;;5077844;28;28537;-84
2022/05/17 12:07:49;;;;;;;;;;;;;;;;;;5095980;28;29486;-88
2022/05/17 12:10:14;;;;;;;;;;;;;;;;;;5083370;27;28823;-86
2022/05/17 12:12:39;;;;;;;;;;;;;;;;;;5092292;27;28472;-89
2022/05/17 12:15:04;;;;;;;;;;;;;;;;;;5078609;28;28518;-88
2022/05/17 12:17:29;;;;;;;;;;;;;;;;;;5076190;28;28467;-88
2022/05/17 12:19:55;;;;;;;;;;;;;;;;;;5057392;28;32321;-86
2022/05/17 12:22:20;;;;;;;;;;;;;;;;;;5090098;28;28479;-87
2022/05/17 12:24:45;;;;;;;;;;;;;;;;;;5096239;27;28525;-86
2022/05/17 12:27:10;;;;;;;;;;;;;;;;;;5092809;27;29294;-86
2022/05/17 12:32:19;;;;;;;;;;;;;;;;;;5096150;28;28526;-87
2022/05/17 12:34:44;;;;;;;;;;;;;;;;;;5077692;28;28544;-88
2022/05/17 12:37:09;;;;;;;;;;;;;;;;;;5078246;28;28330;-87
2022/05/17 12:45:02;;;;;;;;;;;;;;;;;;5077541;28;28302;-87
2022/05/17 12:47:27;;;;;;;;;;;;;;;;;;5096112;27;28811;-87
2022/05/17 12:49:53;;;;;;;;;;;;;;;;;;5084753;28;28506;-87
2022/05/17 12:52:18;;;;;;;;;;;;;;;;;;5075842;28;28255;-87
2022/05/17 12:54:43;;;;;;;;;;;;;;;;;;5076111;28;28246;-87
2022/05/17 12:57:08;;;;;;;;;;;;;;;;;;5088445;28;28986;-87
2022/05/17 12:59:33;;;;;;;;;;;;;;;;;;5084398;28;28414;-87
2022/05/17 13:01:58;;;;;;;;;;;;;;;;;;5075819;28;28352;-93
2022/05/17 13:04:24;;;;;;;;;;;;;;;;;;5092400;28;28336;-91
2022/05/17 13:06:49;;;;;;;;;;;;;;;;;;5075727;28;28569;-92
2022/05/17 13:09:14;;;;;;;;;;;;;;;;;;5075322;28;28394;-90
2022/05/17 13:11:39;;;;;;;;;;;;;;;;;;5075624;28;28561;-90
2022/05/17 13:14:04;;;;;;;;;;;;;;;;;;5075621;28;28399;-92
2022/05/17 13:16:30;;;;;;;;;;;;;;;;;;5075304;28;28481;-91
2022/05/17 13:18:55;;;;;;;;;;;;;;;;;;5075546;28;28323;-91
2022/05/17 13:21:20;;;;;;;;;;;;;;;;;;5075441;28;28434;-91
2022/05/17 13:23:45;;;;;;;;;;;;;;;;;;5091301;28;28419;-92
2022/05/17 13:26:13;;;;;;;;;;;;;;;;;;5090860;28;30017;-93
2022/05/17 13:28:38;;;;;;;;;;;;;;;;;;5076024;28;28462;-94
2022/05/17 13:31:03;;;;;;;;;;;;;;;;;;5075623;28;28419;-92
2022/05/17 13:33:28;;;;;;;;;;;;;;;;;;5091081;28;28336;-93
2022/05/17 13:35:53;;;;;;;;;;;;;;;;;;5075143;28;28419;-84
2022/05/17 13:38:18;;;;;;;;;;;;;;;;;;5074814;28;28482;-91
2022/05/17 13:40:44;;;;;;;;;;;;;;;;;;5075583;28;28395;-91
2022/05/17 13:43:09;;;;;;;;;;;;;;;;;;5090955;27;28545;-92
2022/05/17 13:45:38;;;;;;;;;;;;;;;;;;5074754;28;28307;-93
2022/05/17 13:48:03;;;;;;;;;;;;;;;;;;5075144;28;28212;-90
2022/05/17 13:50:28;;;;;;;;;;;;;;;;;;5074968;28;28235;-92
2022/05/17 13:52:53;;;;;;;;;;;;;;;;;;5075312;28;28621;-93
2022/05/17 13:55:18;;;;;;;;;;;;;;;;;;5075043;28;29368;-92
2022/05/17 13:57:43;;;;;;;;;;;;;;;;;;5090414;28;28710;-92
2022/05/17 14:00:10;;;;;;;;;;;;;;;;;;5090423;28;28442;-93
2022/05/17 14:02:35;;;;;;;;;;;;;;;;;;5090570;28;28669;-91
2022/05/17 14:05:00;;;;;;;;;;;;;;;;;;5074946;28;28429;-92
2022/05/17 14:07:25;;;;;;;;;;;;;;;;;;5075143;28;28449;-92
2022/05/17 14:12:34;;;;;;;;;;;;;;;;;;5074776;28;28467;-93
2022/05/17 14:14:59;;;;;;;;;;;;;;;;;;5074813;28;28406;-92
2022/05/17 14:17:26;;;;;;;;;;;;;;;;;;5090547;28;29299;-93
2022/05/17 14:19:51;;;;;;;;;;;;;;;;;;5074849;28;28483;-93
2022/05/17 14:22:17;;;;;;;;;;;;;;;;;;5075213;28;28494;-92
2022/05/17 14:24:42;;;;;;;;;;;;;;;;;;5091452;28;29684;-91
2022/05/17 14:27:07;;;;;;;;;;;;;;;;;;5093937;27;29584;-92
2022/05/17 14:29:34;;;;;;;;;;;;;;;;;;5093945;28;28394;-92
2022/05/17 14:32:00;;;;;;;;;;;;;;;;;;5078237;28;28518;-91
2022/05/17 14:34:25;;;;;;;;;;;;;;;;;;5093821;28;29849;-92
2022/05/17 14:36:50;;;;;;;;;;;;;;;;;;5078501;28;28303;-90
2022/05/17 14:39:15;;;;;;;;;;;;;;;;;;5079048;28;28316;-91
2022/05/17 14:41:42;;;;;;;;;;;;;;;;;;5078005;28;28308;-87
2022/05/17 14:44:08;;;;;;;;;;;;;;;;;;5077971;28;28519;-91
2022/05/17 14:46:34;;;;;;;;;;;;;;;;;;5077872;28;28440;-90
2022/05/17 14:48:59;;;;;;;;;;;;;;;;;;5078069;28;28402;-90
2022/05/17 14:51:24;;;;;;;;;;;;;;;;;;5077876;28;28433;-90
2022/05/17 14:53:49;;;;;;;;;;;;;;;;;;5077690;28;28454;-90
2022/05/17 14:56:14;;;;;;;;;;;;;;;;;;5077762;28;28601;-89
2022/05/17 14:58:40;;;;;;;;;;;;;;;;;;5077812;28;28365;-90
2022/05/17 15:01:06;;;;;;;;;;;;;;;;;;5077528;28;28447;-91
2022/05/17 15:03:32;;;;;;;;;;;;;;;;;;5077562;28;28509;-90
2022/05/17 15:05:57;;;;;;;;;;;;;;;;;;5077171;28;28407;-90
2022/05/17 15:08:22;;;;;;;;;;;;;;;;;;5077758;28;28364;-91
2022/05/17 15:10:47;;;;;;;;;;;;;;;;;;5093232;27;28534;-91
2022/05/17 15:13:12;;;;;;;;;;;;;;;;;;5092951;28;29197;-90
2022/05/17 15:15:37;;;;;;;;;;;;;;;;;;5093255;27;28430;-90
2022/05/17 15:18:02;;;;;;;;;;;;;;;;;;5093233;27;28734;-90
2022/05/17 15:20:28;;;;;;;;;;;;;;;;;;5077677;28;28375;-90
2022/05/17 15:22:53;;;;;;;;;;;;;;;;;;5077218;28;28554;-90
2022/05/17 15:25:19;;;;;;;;;;;;;;;;;;5077096;28;28540;-91
2022/05/17 15:27:44;;;;;;;;;;;;;;;;;;5092992;28;28481;-90
2022/05/17 15:30:09;;;;;;;;;;;;;;;;;;5077344;28;28269;-91
2022/05/17 15:32:35;;;;;;;;;;;;;;;;;;5077262;28;29256;-91
2022/05/17 15:35:00;;;;;;;;;;;;;;;;;;5076929;28;28292;-91
2022/05/17 15:37:25;;;;;;;;;;;;;;;;;;5076452;28;28456;-89
2022/05/17 15:39:51;;;;;;;;;;;;;;;;;;5076183;28;28477;-91
2022/05/17 15:42:17;;;;;;;;;;;;;;;;;;5076302;28;28651;-90
2022/05/17 15:44:42;;;;;;;;;;;;;;;;;;5076492;28;28462;-92
2022/05/17 15:55:19;;;;;;;;;;;;;;;;;;5076287;28;28386;-92
2022/05/17 15:57:44;;;;;;;;;;;;;;;;;;5091818;27;28469;-92
2022/05/17 16:00:11;;;;;;;;;;;;;;;;;;5076317;28;28531;-91
2022/05/17 16:02:36;;;;;;;;;;;;;;;;;;5076038;28;28562;-92
2022/05/17 16:05:04;;;;;;;;;;;;;;;;;;5076176;28;28398;-91
2022/05/17 16:10:14;;;;;;;;;;;;;;;;;;5076290;28;28451;-92
2022/05/17 16:12:39;;;;;;;;;;;;;;;;;;5091507;27;29706;-91
2022/05/17 16:15:04;;;;;;;;;;;;;;;;;;5075229;28;28653;-90
2022/05/17 16:17:29;;;;;;;;;;;;;;;;;;5075873;28;28400;-91
2022/05/17 16:19:55;;;;;;;;;;;;;;;;;;5076141;28;28487;-93
2022/05/17 16:22:20;;;;;;;;;;;;;;;;;;5091190;28;30527;-92
2022/05/17 16:24:45;;;;;;;;;;;;;;;;;;5091403;27;29130;-92
2022/05/17 16:27:11;;;;;;;;;;;;;;;;;;5075810;28;28482;-86
2022/05/17 16:29:37;;;;;;;;;;;;;;;;;;5076437;28;28415;-89
2022/05/17 16:32:02;;;;;;;;;;;;;;;;;;5075714;28;28505;-86
2022/05/17 16:34:27;;;;;;;;;;;;;;;;;;5076028;28;28500;-87
2022/05/17 16:36:53;;;;;;;;;;;;;;;;;;5093766;27;28414;-88
2022/05/17 16:39:18;;;;;;;;;;;;;;;;;;5077226;28;28462;-90
2022/05/17 16:41:43;;;;;;;;;;;;;;;;;;5075991;28;29625;-95
2022/05/17 16:44:09;;;;;;;;;;;;;;;;;;5092879;28;28643;-94
2022/05/17 16:46:34;;;;;;;;;;;;;;;;;;5077724;28;28332;-95
2022/05/17 16:48:59;;;;;;;;;;;;;;;;;;5091493;28;28557;-95
2022/05/17 16:51:25;;;;;;;;;;;;;;;;;;5075766;28;29358;-87
2022/05/17 16:53:50;;;;;;;;;;;;;;;;;;5075864;28;28478;-92
2022/05/17 16:56:15;;;;;;;;;;;;;;;;;;5091037;28;28387;-88
2022/05/17 16:58:41;;;;;;;;;;;;;;;;;;5075351;28;28568;-90
2022/05/17 17:01:07;;;;;;;;;;;;;;;;;;5075103;28;29638;-89
2022/05/17 17:03:32;;;;;;;;;;;;;;;;;;5075071;28;28496;-90
2022/05/17 17:05:58;;;;;;;;;;;;;;;;;;5075408;28;28535;-88
2022/05/17 17:08:23;;;;;;;;;;;;;;;;;;5075713;28;28416;-92